Time,TemperatureF,DewpointF,PressureIn,WindDirection,WindDirectionDegrees,WindSpeedMPH,WindSpeedGustMPH,Humidity,HourlyPrecipIn,Conditions,Clouds,dailyrainin,SoftwareType,DateUTC
2013-01-01 00:00:00,47.0,44.8,30.23,SSW,213,0.0,0.0,92,0.00,CLR,,0.00,WeatherDisplay:10.37,2013-01-01 05:00:00,
2013-01-01 00:02:00,47.0,44.8,30.23,SW,214,0.0,0.0,92,0.00,CLR,,0.00,WeatherDisplay:10.37,2013-01-01 05:02:00,
2013-01-01 00:07:00,46.9,44.7,30.22,SSW,213,0.0,0.0,92,0.00,CLR,,0.00,WeatherDisplay:10.37,2013-01-01 05:07:00,
2013-01-01 00:12:00,46.9,44.7,30.22,SSW,213,0.0,0.0,92,0.00,CLR,,0.00,WeatherDisplay:10.37,2013-01-01 05:12:00,
2013-01-01 00:17:00,46.8,44.6,30.21,SSW,213,0.0,0.0,92,0.00,CLR,,0.00,WeatherDisplay:10.37,2013-01-01 05:17:00,
2013-01-01 00:22:00,46.8,44.6,30.21,SSW,213,0.0,0.0,92,0.00,CLR,,0.00,WeatherDisplay:10.37,2013-01-01 05:22:00,
2013-01-01 00:27:00,46.7,44.5,30.21,SW,214,0.0,0.0,92,0.00,CLR,,0.00,WeatherDisplay:10.37,2013-01-01 05:27:00,
2013-01-01 00:32:00,46.7,44.5,30.21,SSW,213,0.0,0.0,92,0.00,CLR,,0.00,WeatherDisplay:10.37,2013-01-01 05:32:00,
2013-01-01 00:37:00,46.7,44.5,30.20,SSW,213,0.0,0.0,92,0.00,CLR,,0.00,WeatherDisplay:10.37,2013-01-01 05:37:00,
2013-01-01 00:42:00,46.6,44.4,30.20,SSW,213,0.0,0.0,92,0.00,CLR,,0.00,WeatherDisplay:10.37,2013-01-01 05:42:00,
2013-01-01 00:47:00,46.6,44.4,30.20,SSW,213,0.0,0.0,92,0.00,CLR,,0.00,WeatherDisplay:10.37,2013-01-01 05:47:00,
2013-01-01 00:52:00,46.5,44.3,30.20,SW,214,0.0,0.0,92,0.00,CLR,,0.00,WeatherDisplay:10.37,2013-01-01 05:52:00,
2013-01-01 00:57:00,46.3,44.1,30.19,SSW,213,0.0,0.0,92,0.00,CLR,,0.00,WeatherDisplay:10.37,2013-01-01 05:57:00,
2013-01-01 01:02:00,46.2,44.0,30.19,SW,214,0.0,0.0,92,0.00,CLR,,0.00,WeatherDisplay:10.37,2013-01-01 06:02:00,
2013-01-01 01:07:00,46.1,43.6,30.19,SSW,213,0.0,0.0,91,0.00,CLR,,0.00,WeatherDisplay:10.37,2013-01-01 06:07:00,
2013-01-01 01:12:00,46.0,43.5,30.18,SSW,213,0.0,0.0,91,0.00,CLR,,0.00,WeatherDisplay:10.37,2013-01-01 06:12:00,
2013-01-01 01:17:00,45.9,43.4,30.18,SSW,213,0.0,0.0,91,0.00,CLR,,0.00,WeatherDisplay:10.37,2013-01-01 06:17:00,
2013-01-01 01:22:00,45.7,43.2,30.18,SW,214,0.0,0.0,91,0.00,CLR,,0.00,WeatherDisplay:10.37,2013-01-01 06:22:00,
2013-01-01 01:27:00,45.6,43.1,30.18,SW,214,0.0,0.0,91,0.00,CLR,,0.00,WeatherDisplay:10.37,2013-01-01 06:27:00,
2013-01-01 01:32:00,45.4,42.9,30.19,SSW,213,0.0,0.0,91,0.00,CLR,,0.00,WeatherDisplay:10.37,2013-01-01 06:32:00,
2013-01-01 01:37:00,45.3,42.8,30.18,SSW,213,0.0,0.0,91,0.00,CLR,,0.00,WeatherDisplay:10.37,2013-01-01 06:37:00,
2013-01-01 01:42:00,45.1,42.6,30.18,SSW,213,0.0,0.0,91,0.00,CLR,,0.00,WeatherDisplay:10.37,2013-01-01 06:42:00,
2013-01-01 01:47:00,45.0,42.5,30.18,SSW,213,0.0,0.0,91,0.00,CLR,,0.00,WeatherDisplay:10.37,2013-01-01 06:47:00,
2013-01-01 01:52:00,45.0,42.5,30.17,SSW,213,0.0,0.0,91,0.00,CLR,,0.00,WeatherDisplay:10.37,2013-01-01 06:52:00,
2013-01-01 01:57:00,44.8,42.3,30.17,SW,214,0.0,0.0,91,0.00,CLR,,0.00,WeatherDisplay:10.37,2013-01-01 06:57:00,
2013-01-01 02:02:00,44.7,42.2,30.17,SSW,213,0.0,0.0,91,0.00,CLR,,0.00,WeatherDisplay:10.37,2013-01-01 07:02:00,
2013-01-01 02:07:00,44.6,42.1,30.17,SW,214,0.0,0.0,91,0.00,CLR,,0.00,WeatherDisplay:10.37,2013-01-01 07:07:00,
2013-01-01 02:12:00,44.5,42.0,30.17,SW,214,0.0,0.0,91,0.00,CLR,,0.00,WeatherDisplay:10.37,2013-01-01 07:12:00,
2013-01-01 02:17:00,44.4,41.9,30.17,SSW,213,0.0,0.0,91,0.00,CLR,,0.00,WeatherDisplay:10.37,2013-01-01 07:17:00,
2013-01-01 02:22:00,44.3,41.8,30.17,SSW,213,0.0,0.0,91,0.00,CLR,,0.00,WeatherDisplay:10.37,2013-01-01 07:22:00,
2013-01-01 02:27:00,44.2,41.7,30.17,SSW,213,0.0,0.0,91,0.00,CLR,,0.00,WeatherDisplay:10.37,2013-01-01 07:27:00,
2013-01-01 02:32:00,44.1,41.6,30.17,SSW,213,0.0,0.0,91,0.00,CLR,,0.00,WeatherDisplay:10.37,2013-01-01 07:32:00,
2013-01-01 02:37:00,44.0,41.5,30.16,SW,214,0.0,0.0,91,0.00,CLR,,0.00,WeatherDisplay:10.37,2013-01-01 07:37:00,
2013-01-01 02:42:00,43.9,41.4,30.16,SSW,213,0.0,0.0,91,0.00,CLR,,0.00,WeatherDisplay:10.37,2013-01-01 07:42:00,
2013-01-01 02:47:00,43.8,41.3,30.16,SSW,213,0.0,0.0,91,0.00,CLR,,0.00,WeatherDisplay:10.37,2013-01-01 07:47:00,
2013-01-01 02:52:00,43.7,41.5,30.16,SSW,213,0.0,0.0,92,0.00,CLR,,0.00,WeatherDisplay:10.37,2013-01-01 07:52:00,
2013-01-01 02:57:00,43.7,41.5,30.16,SSW,213,0.0,0.0,92,0.00,CLR,,0.00,WeatherDisplay:10.37,2013-01-01 07:57:00,
2013-01-01 03:02:00,43.6,41.4,30.16,SW,214,0.0,0.0,92,0.00,CLR,,0.00,WeatherDisplay:10.37,2013-01-01 08:02:00,
2013-01-01 03:07:00,43.6,41.4,30.16,SSW,213,0.0,0.0,92,0.00,CLR,,0.00,WeatherDisplay:10.37,2013-01-01 08:07:00,
2013-01-01 03:12:00,43.5,41.0,30.16,SSW,213,0.0,0.0,91,0.00,CLR,,0.00,WeatherDisplay:10.37,2013-01-01 08:12:00,
2013-01-01 03:17:00,43.5,41.3,30.16,SSW,213,0.0,0.0,92,0.00,CLR,,0.00,WeatherDisplay:10.37,2013-01-01 08:17:00,
2013-01-01 03:22:00,43.4,41.2,30.16,SSW,213,0.0,0.0,92,0.00,CLR,,0.00,WeatherDisplay:10.37,2013-01-01 08:22:00,
2013-01-01 03:27:00,43.4,41.2,30.16,SSW,213,0.0,0.0,92,0.00,CLR,,0.00,WeatherDisplay:10.37,2013-01-01 08:27:00,
2013-01-01 03:32:00,43.3,41.1,30.16,SSW,213,0.0,0.0,92,0.00,CLR,,0.00,WeatherDisplay:10.37,2013-01-01 08:32:00,
2013-01-01 03:37:00,43.3,41.1,30.16,SW,214,0.0,0.0,92,0.00,CLR,,0.00,WeatherDisplay:10.37,2013-01-01 08:37:00,
2013-01-01 03:42:00,43.3,41.1,30.16,SW,214,0.0,0.0,92,0.00,CLR,,0.00,WeatherDisplay:10.37,2013-01-01 08:42:00,
2013-01-01 03:47:00,43.3,41.1,30.16,SSW,213,0.0,0.0,92,0.00,CLR,,0.00,WeatherDisplay:10.37,2013-01-01 08:47:00,
2013-01-01 03:52:00,43.2,41.0,30.15,SSW,213,0.0,0.0,92,0.00,CLR,,0.00,WeatherDisplay:10.37,2013-01-01 08:52:00,
2013-01-01 03:57:00,43.2,41.0,30.15,SW,214,0.0,0.0,92,0.00,CLR,,0.00,WeatherDisplay:10.37,2013-01-01 08:57:00,
2013-01-01 04:02:00,43.3,41.1,30.15,SSW,213,0.0,0.0,92,0.00,CLR,,0.00,WeatherDisplay:10.37,2013-01-01 09:02:00,
2013-01-01 04:07:00,43.3,41.1,30.15,SSW,213,0.0,0.0,92,0.00,CLR,,0.00,WeatherDisplay:10.37,2013-01-01 09:07:00,
2013-01-01 04:12:00,43.4,41.2,30.15,SSW,213,0.0,0.0,92,0.00,CLR,,0.00,WeatherDisplay:10.37,2013-01-01 09:12:00,
2013-01-01 04:17:00,43.4,41.2,30.14,SSW,213,0.0,0.0,92,0.00,CLR,,0.00,WeatherDisplay:10.37,2013-01-01 09:17:00,
2013-01-01 04:22:00,43.4,41.5,30.14,SSW,213,0.0,0.0,93,0.00,CLR,,0.00,WeatherDisplay:10.37,2013-01-01 09:22:00,
2013-01-01 04:27:00,43.4,41.5,30.14,SSW,213,0.0,0.0,93,0.00,CLR,,0.00,WeatherDisplay:10.37,2013-01-01 09:27:00,
2013-01-01 04:32:00,43.5,41.6,30.13,SSW,213,0.0,0.0,93,0.00,CLR,,0.00,WeatherDisplay:10.37,2013-01-01 09:32:00,
2013-01-01 04:37:00,43.6,41.7,30.13,SSW,213,0.0,0.0,93,0.00,CLR,,0.00,WeatherDisplay:10.37,2013-01-01 09:37:00,
2013-01-01 04:42:00,43.7,41.8,30.12,SSW,213,0.0,0.0,93,0.00,CLR,,0.00,WeatherDisplay:10.37,2013-01-01 09:42:00,
2013-01-01 04:47:00,43.7,41.8,30.12,SSW,213,0.0,0.0,93,0.00,CLR,,0.00,WeatherDisplay:10.37,2013-01-01 09:47:00,
2013-01-01 04:52:00,44.0,42.1,30.12,SSW,213,0.0,0.0,93,0.00,CLR,,0.00,WeatherDisplay:10.37,2013-01-01 09:52:00,
2013-01-01 04:57:00,44.2,42.3,30.13,SSW,213,0.0,0.0,93,0.00,CLR,,0.00,WeatherDisplay:10.37,2013-01-01 09:57:00,
2013-01-01 05:02:00,44.2,42.3,30.12,SSW,213,0.0,0.0,93,0.00,CLR,,0.00,WeatherDisplay:10.37,2013-01-01 10:02:00,
2013-01-01 05:07:00,44.3,42.4,30.12,SSW,213,0.0,0.0,93,0.00,CLR,,0.00,WeatherDisplay:10.37,2013-01-01 10:07:00,
2013-01-01 05:12:00,44.3,42.4,30.12,SSW,213,0.0,0.0,93,0.00,CLR,,0.00,WeatherDisplay:10.37,2013-01-01 10:12:00,
2013-01-01 05:17:00,44.3,42.4,30.12,SSW,213,0.0,0.0,93,0.00,CLR,,0.00,WeatherDisplay:10.37,2013-01-01 10:17:00,
2013-01-01 05:22:00,44.3,42.4,30.12,SSW,213,0.0,0.0,93,0.00,CLR,,0.00,WeatherDisplay:10.37,2013-01-01 10:22:00,
2013-01-01 05:27:00,44.2,42.3,30.12,SSW,213,0.0,0.0,93,0.00,CLR,,0.00,WeatherDisplay:10.37,2013-01-01 10:27:00,
2013-01-01 05:32:00,44.2,42.3,30.12,SW,214,0.0,0.0,93,0.00,CLR,,0.00,WeatherDisplay:10.37,2013-01-01 10:32:00,
2013-01-01 05:37:00,44.1,42.2,30.12,SSW,213,0.0,0.0,93,0.00,CLR,,0.00,WeatherDisplay:10.37,2013-01-01 10:37:00,
2013-01-01 05:43:00,44.0,42.1,30.11,SW,214,0.0,0.0,93,0.00,CLR,,0.00,WeatherDisplay:10.37,2013-01-01 10:43:00,
2013-01-01 05:48:00,44.0,42.4,30.11,SSW,209,0.0,0.0,94,0.00,CLR,,0.00,WeatherDisplay:10.37,2013-01-01 10:48:00,
2013-01-01 05:53:00,44.1,42.5,30.11,SSW,208,0.0,0.0,94,0.00,CLR,,0.00,WeatherDisplay:10.37,2013-01-01 10:53:00,
2013-01-01 05:58:00,44.1,42.5,30.12,SSW,209,0.0,0.0,94,0.00,CLR,,0.00,WeatherDisplay:10.37,2013-01-01 10:58:00,
2013-01-01 06:03:00,44.3,42.7,30.12,SSW,209,0.0,0.0,94,0.00,CLR,,0.00,WeatherDisplay:10.37,2013-01-01 11:03:00,
2013-01-01 06:08:00,44.5,42.9,30.11,SSW,209,0.0,0.0,94,0.00,CLR,,0.00,WeatherDisplay:10.37,2013-01-01 11:08:00,
2013-01-01 06:13:00,44.5,42.9,30.11,SSW,209,0.0,0.0,94,0.00,CLR,,0.00,WeatherDisplay:10.37,2013-01-01 11:13:00,
2013-01-01 06:18:00,44.5,42.9,30.11,SSW,209,0.0,0.0,94,0.00,CLR,,0.00,WeatherDisplay:10.37,2013-01-01 11:18:00,
2013-01-01 06:23:00,44.5,42.9,30.11,SSW,209,0.0,0.0,94,0.00,CLR,,0.00,WeatherDisplay:10.37,2013-01-01 11:23:00,
2013-01-01 06:28:00,44.6,43.0,30.11,SSW,209,0.0,0.0,94,0.00,CLR,,0.00,WeatherDisplay:10.37,2013-01-01 11:28:00,
2013-01-01 06:33:00,44.7,43.1,30.11,SSW,209,0.0,0.0,94,0.00,CLR,,0.00,WeatherDisplay:10.37,2013-01-01 11:33:00,
2013-01-01 06:38:00,44.8,43.2,30.12,SSW,209,0.0,0.0,94,0.00,CLR,,0.00,WeatherDisplay:10.37,2013-01-01 11:38:00,
2013-01-01 06:43:00,44.9,43.3,30.11,SSW,209,0.0,0.0,94,0.00,CLR,,0.00,WeatherDisplay:10.37,2013-01-01 11:43:00,
2013-01-01 06:48:00,44.9,43.3,30.11,SSW,209,0.0,0.0,94,0.00,CLR,,0.00,WeatherDisplay:10.37,2013-01-01 11:48:00,
2013-01-01 06:53:00,44.9,43.3,30.11,SSW,209,0.0,0.0,94,0.00,CLR,,0.00,WeatherDisplay:10.37,2013-01-01 11:53:00,
2013-01-01 06:58:00,44.9,43.3,30.11,SSW,209,0.0,0.0,94,0.00,CLR,,0.00,WeatherDisplay:10.37,2013-01-01 11:58:00,
2013-01-01 07:03:00,44.9,43.3,30.11,SSW,209,0.0,0.0,94,0.00,CLR,,0.00,WeatherDisplay:10.37,2013-01-01 12:03:00,
2013-01-01 07:08:00,44.8,43.2,30.10,SSW,208,0.0,0.0,94,0.00,CLR,,0.00,WeatherDisplay:10.37,2013-01-01 12:08:00,
2013-01-01 07:13:00,45.0,43.4,30.10,SSW,209,0.0,0.0,94,0.00,CLR,,0.00,WeatherDisplay:10.37,2013-01-01 12:13:00,
2013-01-01 07:18:00,45.0,43.4,30.11,SSW,209,0.0,0.0,94,0.00,CLR,,0.00,WeatherDisplay:10.37,2013-01-01 12:18:00,
2013-01-01 07:23:00,45.0,43.4,30.11,SSW,207,0.0,0.0,94,0.00,CLR,,0.00,WeatherDisplay:10.37,2013-01-01 12:23:00,
2013-01-01 07:28:00,45.0,43.4,30.11,SSW,209,0.0,0.0,94,0.00,CLR,,0.00,WeatherDisplay:10.37,2013-01-01 12:28:00,
2013-01-01 07:33:00,44.9,43.3,30.12,SSW,209,0.0,0.0,94,0.00,CLR,,0.00,WeatherDisplay:10.37,2013-01-01 12:33:00,
2013-01-01 07:38:00,44.8,43.2,30.12,SSW,209,0.0,0.0,94,0.00,CLR,,0.00,WeatherDisplay:10.37,2013-01-01 12:38:00,
2013-01-01 07:43:00,44.8,43.2,30.12,SSW,208,0.0,0.0,94,0.00,CLR,,0.00,WeatherDisplay:10.37,2013-01-01 12:43:00,
2013-01-01 07:48:00,44.8,43.2,30.12,SSW,208,0.0,0.0,94,0.00,CLR,,0.00,WeatherDisplay:10.37,2013-01-01 12:48:00,
2013-01-01 07:53:00,44.7,43.1,30.12,SSW,207,0.0,0.0,94,0.00,CLR,,0.00,WeatherDisplay:10.37,2013-01-01 12:53:00,
2013-01-01 07:58:00,44.7,43.1,30.12,SSW,208,0.0,0.0,94,0.00,CLR,,0.00,WeatherDisplay:10.37,2013-01-01 12:58:00,
2013-01-01 08:03:00,44.8,43.2,30.12,SSW,209,0.0,0.0,94,0.00,CLR,,0.00,WeatherDisplay:10.37,2013-01-01 13:03:00,
2013-01-01 08:08:00,45.0,43.7,30.13,SSW,209,0.0,0.0,95,0.00,CLR,,0.00,WeatherDisplay:10.37,2013-01-01 13:08:00,
2013-01-01 08:13:00,45.1,43.8,30.13,SSW,209,0.0,0.0,95,0.00,CLR,,0.00,WeatherDisplay:10.37,2013-01-01 13:13:00,
2013-01-01 08:18:00,45.4,44.1,30.13,SSW,208,0.0,0.0,95,0.00,CLR,,0.00,WeatherDisplay:10.37,2013-01-01 13:18:00,
2013-01-01 08:23:00,45.9,44.5,30.13,SSW,209,0.0,0.0,95,0.00,CLR,,0.00,WeatherDisplay:10.37,2013-01-01 13:23:00,
2013-01-01 08:28:00,46.3,44.9,30.13,SSW,209,0.0,0.0,95,0.00,CLR,,0.00,WeatherDisplay:10.37,2013-01-01 13:28:00,
2013-01-01 08:33:00,47.0,45.6,30.13,SSW,207,0.0,0.0,95,0.00,CLR,,0.00,WeatherDisplay:10.37,2013-01-01 13:33:00,
2013-01-01 08:38:00,47.8,46.4,30.13,SSW,209,0.0,0.0,95,0.00,CLR,,0.00,WeatherDisplay:10.37,2013-01-01 13:38:00,
2013-01-01 08:43:00,49.0,49.0,30.13,SSW,209,0.0,0.1,100,0.00,CLR,,0.00,WeatherDisplay:10.37,2013-01-01 13:43:00,
2013-01-01 08:48:00,49.5,49.5,30.14,SSW,209,0.0,0.0,100,0.00,CLR,,0.00,WeatherDisplay:10.37,2013-01-01 13:48:00,
2013-01-01 08:53:00,49.8,49.8,30.13,SSW,209,0.0,0.0,100,0.00,CLR,,0.00,WeatherDisplay:10.37,2013-01-01 13:53:00,
2013-01-01 08:58:00,50.2,50.2,30.13,SSW,206,0.0,0.0,100,0.00,CLR,,0.00,WeatherDisplay:10.37,2013-01-01 13:58:00,
2013-01-01 09:03:00,50.5,50.5,30.13,SSW,205,0.0,0.0,100,0.00,CLR,,0.00,WeatherDisplay:10.37,2013-01-01 14:03:00,
2013-01-01 09:08:00,51.0,51.0,30.13,SSW,212,0.0,0.0,100,0.00,CLR,,0.00,WeatherDisplay:10.37,2013-01-01 14:08:00,
2013-01-01 09:13:00,51.4,51.4,30.13,SW,222,1.0,0.0,100,0.00,CLR,,0.00,WeatherDisplay:10.37,2013-01-01 14:13:00,
2013-01-01 09:18:00,51.9,51.9,30.13,SW,221,0.0,0.0,100,0.00,CLR,,0.00,WeatherDisplay:10.37,2013-01-01 14:18:00,
2013-01-01 09:23:00,52.2,52.2,30.14,SW,221,1.0,0.0,100,0.00,CLR,,0.00,WeatherDisplay:10.37,2013-01-01 14:23:00,
2013-01-01 09:28:00,52.5,52.5,30.14,SW,222,0.0,0.0,100,0.00,CLR,,0.00,WeatherDisplay:10.37,2013-01-01 14:28:00,
2013-01-01 09:33:00,52.8,52.8,30.13,SW,223,2.3,2.3,100,0.00,CLR,,0.00,WeatherDisplay:10.37,2013-01-01 14:33:00,
2013-01-01 09:38:00,53.1,53.1,30.14,South,191,0.0,0.0,100,0.00,CLR,,0.00,WeatherDisplay:10.37,2013-01-01 14:38:00,
2013-01-01 09:43:00,53.6,53.6,30.14,SW,221,0.0,0.0,100,0.00,CLR,,0.00,WeatherDisplay:10.37,2013-01-01 14:43:00,
2013-01-01 09:48:00,53.9,53.9,30.14,SSW,210,0.0,0.1,100,0.00,CLR,,0.00,WeatherDisplay:10.37,2013-01-01 14:48:00,
2013-01-01 09:53:00,54.0,54.0,30.14,SSW,213,0.0,0.0,100,0.00,CLR,,0.00,WeatherDisplay:10.37,2013-01-01 14:53:00,
2013-01-01 09:58:00,54.2,54.2,30.14,SSW,213,0.0,0.0,100,0.00,CLR,,0.00,WeatherDisplay:10.37,2013-01-01 14:58:00,
2013-01-01 10:03:00,54.5,54.5,30.14,SW,214,0.0,0.0,100,0.00,CLR,,0.00,WeatherDisplay:10.37,2013-01-01 15:03:00,
2013-01-01 10:08:00,54.8,54.8,30.15,SSW,213,0.0,0.0,100,0.00,CLR,,0.00,WeatherDisplay:10.37,2013-01-01 15:08:00,
2013-01-01 10:13:00,55.0,55.0,30.14,SSW,213,0.0,0.0,100,0.00,CLR,,0.00,WeatherDisplay:10.37,2013-01-01 15:13:00,
2013-01-01 10:18:00,55.2,55.2,30.14,SW,214,0.0,0.0,100,0.00,CLR,,0.00,WeatherDisplay:10.37,2013-01-01 15:18:00,
2013-01-01 10:23:00,55.5,55.5,30.14,SW,219,0.0,0.0,100,0.00,CLR,,0.00,WeatherDisplay:10.37,2013-01-01 15:23:00,
2013-01-01 10:28:00,55.8,54.4,30.14,SW,220,0.0,0.0,95,0.00,CLR,,0.00,WeatherDisplay:10.37,2013-01-01 15:28:00,
2013-01-01 10:33:00,56.1,54.7,30.14,WSW,253,6.0,6.0,95,0.00,CLR,,0.00,WeatherDisplay:10.37,2013-01-01 15:33:00,
2013-01-01 10:38:00,56.4,55.0,30.14,South,180,2.3,0.0,95,0.00,CLR,,0.00,WeatherDisplay:10.37,2013-01-01 15:38:00,
2013-01-01 10:43:00,56.8,55.1,30.13,SSW,205,1.0,0.0,94,0.00,CLR,,0.00,WeatherDisplay:10.37,2013-01-01 15:43:00,
2013-01-01 10:48:00,57.2,55.2,30.13,SW,215,4.6,4.6,93,0.00,CLR,,0.00,WeatherDisplay:10.37,2013-01-01 15:48:00,
2013-01-01 10:53:00,57.7,55.4,30.13,SW,216,3.0,3.0,92,0.00,CLR,,0.00,WeatherDisplay:10.37,2013-01-01 15:53:00,
2013-01-01 10:58:00,58.1,55.5,30.13,SSW,192,4.6,4.6,91,0.00,CLR,,0.00,WeatherDisplay:10.37,2013-01-01 15:58:00,
2013-01-01 11:03:00,58.7,55.5,30.13,SW,223,3.0,3.0,89,0.00,CLR,,0.00,WeatherDisplay:10.37,2013-01-01 16:03:00,
2013-01-01 11:08:00,59.0,55.4,30.12,South,186,0.0,0.0,88,0.00,CLR,,0.00,WeatherDisplay:10.37,2013-01-01 16:08:00,
2013-01-01 11:13:00,59.6,55.7,30.12,South,186,0.0,0.0,87,0.00,CLR,,0.00,WeatherDisplay:10.37,2013-01-01 16:13:00,
2013-01-01 11:18:00,60.5,56.3,30.12,West,260,0.0,0.0,86,0.00,CLR,,0.00,WeatherDisplay:10.37,2013-01-01 16:18:00,
2013-01-01 11:23:00,61.1,56.2,30.12,South,187,3.5,3.5,84,0.00,CLR,,0.00,WeatherDisplay:10.37,2013-01-01 16:23:00,
2013-01-01 11:28:00,61.8,56.2,30.11,SW,221,3.5,3.5,82,0.00,CLR,,0.00,WeatherDisplay:10.37,2013-01-01 16:28:00,
2013-01-01 11:33:00,62.5,56.6,30.11,SSW,198,5.0,5.0,81,0.00,CLR,,0.00,WeatherDisplay:10.37,2013-01-01 16:33:00,
2013-01-01 11:38:00,63.3,56.7,30.10,South,176,5.8,5.8,79,0.00,CLR,,0.00,WeatherDisplay:10.37,2013-01-01 16:38:00,
2013-01-01 11:43:00,64.2,57.2,30.10,SW,229,7.0,7.0,78,0.00,CLR,,0.00,WeatherDisplay:10.37,2013-01-01 16:43:00,
2013-01-01 11:48:00,64.7,57.0,30.10,SSW,198,8.1,8.1,76,0.00,CLR,,0.00,WeatherDisplay:10.37,2013-01-01 16:48:00,
2013-01-01 11:53:00,65.1,57.0,30.10,SSW,192,3.5,3.5,75,0.00,CLR,,0.00,WeatherDisplay:10.37,2013-01-01 16:53:00,
2013-01-01 11:58:00,65.7,57.2,30.09,WSW,244,8.1,8.1,74,0.00,CLR,,0.00,WeatherDisplay:10.37,2013-01-01 16:58:00,
2013-01-01 12:03:00,66.0,57.5,30.09,SW,228,0.0,0.0,74,0.00,CLR,,0.00,WeatherDisplay:10.37,2013-01-01 17:03:00,
2013-01-01 12:08:00,66.3,57.8,30.09,WSW,237,0.0,0.0,74,0.00,CLR,,0.00,WeatherDisplay:10.37,2013-01-01 17:08:00,
2013-01-01 12:13:00,66.6,57.7,30.09,SW,235,6.0,6.0,73,0.00,CLR,,0.00,WeatherDisplay:10.37,2013-01-01 17:13:00,
2013-01-01 12:18:00,66.8,57.9,30.09,WSW,249,3.5,3.5,73,0.00,CLR,,0.00,WeatherDisplay:10.37,2013-01-01 17:18:00,
2013-01-01 12:23:00,67.0,57.7,30.09,West,277,4.6,0.0,72,0.00,CLR,,0.00,WeatherDisplay:10.37,2013-01-01 17:23:00,
2013-01-01 12:28:00,67.1,57.8,30.08,SW,227,4.6,4.6,72,0.00,CLR,,0.00,WeatherDisplay:10.37,2013-01-01 17:28:00,
2013-01-01 12:33:00,67.4,58.1,30.08,SSW,205,4.6,0.0,72,0.00,CLR,,0.00,WeatherDisplay:10.37,2013-01-01 17:33:00,
2013-01-01 12:38:00,67.7,58.0,30.07,WSW,249,10.4,10.4,71,0.00,CLR,,0.00,WeatherDisplay:10.37,2013-01-01 17:38:00,
2013-01-01 12:43:00,68.0,57.8,30.07,SW,218,8.1,8.1,70,0.00,CLR,,0.00,WeatherDisplay:10.37,2013-01-01 17:43:00,
2013-01-01 12:48:00,68.6,58.4,30.06,WSW,245,6.9,6.9,70,0.00,CLR,,0.00,WeatherDisplay:10.37,2013-01-01 17:48:00,
2013-01-01 12:53:00,68.9,58.3,30.06,WSW,250,6.9,6.9,69,0.00,CLR,,0.00,WeatherDisplay:10.37,2013-01-01 17:53:00,
2013-01-01 12:58:00,69.4,58.4,30.06,SW,236,6.9,6.9,68,0.00,CLR,,0.00,WeatherDisplay:10.37,2013-01-01 17:58:00,
2013-01-01 13:03:00,69.8,58.8,30.06,SW,217,3.5,3.5,68,0.00,CLR,,0.00,WeatherDisplay:10.37,2013-01-01 18:03:00,
2013-01-01 13:09:00,70.2,58.3,30.05,SW,230,11.5,11.5,66,0.00,CLR,,0.00,WeatherDisplay:10.37,2013-01-01 18:09:00,
2013-01-01 13:14:00,70.4,58.9,30.05,South,180,7.0,7.0,67,0.00,CLR,,0.00,WeatherDisplay:10.37,2013-01-01 18:14:00,
2013-01-01 13:22:00,70.9,59.0,30.04,SW,229,5.0,5.0,66,0.00,CLR,,0.00,WeatherDisplay:10.37,2013-01-01 18:22:00,
2013-01-01 13:27:00,70.9,58.5,30.03,SW,231,9.2,9.2,65,0.00,CLR,,0.00,WeatherDisplay:10.37,2013-01-01 18:27:00,
2013-01-01 13:32:00,70.9,58.5,30.03,SSW,202,11.5,11.5,65,0.00,CLR,,0.00,WeatherDisplay:10.37,2013-01-01 18:32:00,
2013-01-01 13:37:00,70.8,58.4,30.03,SW,234,9.0,9.0,65,0.00,CLR,,0.00,WeatherDisplay:10.37,2013-01-01 18:37:00,
2013-01-01 13:42:00,70.7,58.4,30.03,SW,233,6.9,6.9,65,0.00,CLR,,0.00,WeatherDisplay:10.37,2013-01-01 18:42:00,
2013-01-01 13:47:00,70.9,58.5,30.03,West,261,10.4,10.4,65,0.00,CLR,,0.00,WeatherDisplay:10.37,2013-01-01 18:47:00,
2013-01-01 13:52:00,70.9,58.1,30.02,SW,221,11.5,11.5,64,0.00,CLR,,0.00,WeatherDisplay:10.37,2013-01-01 18:52:00,
2013-01-01 13:57:00,70.9,58.5,30.02,SW,236,10.0,10.0,65,0.00,CLR,,0.00,WeatherDisplay:10.37,2013-01-01 18:57:00,
2013-01-01 14:02:00,70.9,58.5,30.02,WSW,244,11.5,11.5,65,0.00,CLR,,0.00,WeatherDisplay:10.37,2013-01-01 19:02:00,
2013-01-01 14:07:00,70.9,59.0,30.02,SSW,196,6.9,6.9,66,0.00,CLR,,0.00,WeatherDisplay:10.37,2013-01-01 19:07:00,
2013-01-01 14:12:00,70.9,59.0,30.02,WNW,295,15.0,15.0,66,0.00,CLR,,0.00,WeatherDisplay:10.37,2013-01-01 19:12:00,
2013-01-01 14:17:00,70.8,58.9,30.02,SW,225,2.3,2.3,66,0.00,CLR,,0.00,WeatherDisplay:10.37,2013-01-01 19:17:00,
2013-01-01 14:22:00,70.7,58.8,30.02,West,259,6.9,6.9,66,0.00,CLR,,0.00,WeatherDisplay:10.37,2013-01-01 19:22:00,
2013-01-01 14:27:00,70.6,58.7,30.02,SSW,195,5.8,5.8,66,0.00,CLR,,0.00,WeatherDisplay:10.37,2013-01-01 19:27:00,
2013-01-01 14:32:00,70.4,58.5,30.02,SW,232,6.9,6.9,66,0.00,CLR,,0.00,WeatherDisplay:10.37,2013-01-01 19:32:00,
2013-01-01 14:37:00,70.3,58.8,30.02,SW,215,6.9,6.9,67,0.00,CLR,,0.00,WeatherDisplay:10.37,2013-01-01 19:37:00,
2013-01-01 14:42:00,70.2,58.7,30.02,SW,229,3.5,3.5,67,0.00,CLR,,0.00,WeatherDisplay:10.37,2013-01-01 19:42:00,
2013-01-01 14:47:00,70.2,59.1,30.02,SW,232,3.5,0.0,68,0.00,CLR,,0.00,WeatherDisplay:10.37,2013-01-01 19:47:00,
2013-01-01 14:52:00,70.2,59.1,30.02,SW,217,9.0,9.0,68,0.00,CLR,,0.00,WeatherDisplay:10.37,2013-01-01 19:52:00,
2013-01-01 14:57:00,70.3,59.2,30.02,SW,230,5.0,5.0,68,0.00,CLR,,0.00,WeatherDisplay:10.37,2013-01-01 19:57:00,
2013-01-01 15:02:00,70.3,58.8,30.02,SW,228,4.6,0.0,67,0.00,CLR,,0.00,WeatherDisplay:10.37,2013-01-01 20:02:00,
2013-01-01 15:07:00,70.3,59.2,30.02,SW,234,10.4,10.4,68,0.00,CLR,,0.00,WeatherDisplay:10.37,2013-01-01 20:07:00,
2013-01-01 15:12:00,70.4,58.9,30.01,SW,224,7.0,7.0,67,0.00,CLR,,0.00,WeatherDisplay:10.37,2013-01-01 20:12:00,
2013-01-01 15:17:00,70.4,58.9,30.01,SW,229,4.6,4.6,67,0.00,CLR,,0.00,WeatherDisplay:10.37,2013-01-01 20:17:00,
2013-01-01 15:22:00,70.6,59.5,30.01,SW,225,8.1,8.1,68,0.00,CLR,,0.00,WeatherDisplay:10.37,2013-01-01 20:22:00,
2013-01-01 15:27:00,70.8,59.3,30.01,SW,217,8.1,8.1,67,0.00,CLR,,0.00,WeatherDisplay:10.37,2013-01-01 20:27:00,
2013-01-01 15:32:00,70.9,59.4,30.01,WSW,251,8.1,8.1,67,0.00,CLR,,0.00,WeatherDisplay:10.37,2013-01-01 20:32:00,
2013-01-01 15:37:00,71.0,59.5,30.01,SW,232,1.1,0.0,67,0.00,CLR,,0.00,WeatherDisplay:10.37,2013-01-01 20:37:00,
2013-01-01 15:42:00,71.0,59.5,30.01,SW,236,4.6,4.6,67,0.00,CLR,,0.00,WeatherDisplay:10.37,2013-01-01 20:42:00,
2013-01-01 15:47:00,71.0,59.5,30.01,SW,223,0.0,0.0,67,0.00,CLR,,0.00,WeatherDisplay:10.37,2013-01-01 20:47:00,
2013-01-01 15:52:00,70.8,58.9,30.01,WSW,237,6.9,6.9,66,0.00,CLR,,0.00,WeatherDisplay:10.37,2013-01-01 20:52:00,
2013-01-01 15:57:00,70.8,59.3,30.01,SW,219,6.9,6.9,67,0.00,CLR,,0.00,WeatherDisplay:10.37,2013-01-01 20:57:00,
2013-01-01 16:02:00,70.8,59.3,30.00,SSW,213,6.9,6.9,67,0.00,CLR,,0.00,WeatherDisplay:10.37,2013-01-01 21:02:00,
2013-01-01 16:07:00,70.9,59.4,30.00,WSW,241,3.5,0.0,67,0.00,CLR,,0.00,WeatherDisplay:10.37,2013-01-01 21:07:00,
2013-01-01 16:12:00,70.9,59.4,30.00,SW,223,6.9,6.9,67,0.00,CLR,,0.00,WeatherDisplay:10.37,2013-01-01 21:12:00,
2013-01-01 16:17:00,70.9,59.4,30.00,SW,234,3.0,3.0,67,0.00,CLR,,0.00,WeatherDisplay:10.37,2013-01-01 21:17:00,
2013-01-01 16:22:00,70.8,59.3,30.00,SW,233,0.0,0.0,67,0.00,CLR,,0.00,WeatherDisplay:10.37,2013-01-01 21:22:00,
2013-01-01 16:27:00,70.7,59.2,30.00,WSW,244,5.0,5.0,67,0.00,CLR,,0.00,WeatherDisplay:10.37,2013-01-01 21:27:00,
2013-01-01 16:32:00,70.6,59.1,29.99,SW,219,3.5,3.5,67,0.00,CLR,,0.00,WeatherDisplay:10.37,2013-01-01 21:32:00,
2013-01-01 16:37:00,70.4,58.9,29.99,SW,234,0.0,0.0,67,0.00,CLR,,0.00,WeatherDisplay:10.37,2013-01-01 21:37:00,
2013-01-01 16:42:00,70.3,58.8,29.99,SW,221,6.9,6.9,67,0.00,CLR,,0.00,WeatherDisplay:10.37,2013-01-01 21:42:00,
2013-01-01 16:47:00,70.1,58.6,30.00,SW,221,5.0,0.0,67,0.00,CLR,,0.00,WeatherDisplay:10.37,2013-01-01 21:47:00,
2013-01-01 16:52:00,70.1,58.6,30.00,SW,225,0.0,0.0,67,0.00,CLR,,0.00,WeatherDisplay:10.37,2013-01-01 21:52:00,
2013-01-01 16:57:00,69.9,58.4,29.99,WSW,241,8.1,8.1,67,0.00,CLR,,0.00,WeatherDisplay:10.37,2013-01-01 21:57:00,
2013-01-01 17:02:00,69.8,58.3,29.99,WSW,243,6.9,6.9,67,0.00,CLR,,0.00,WeatherDisplay:10.37,2013-01-01 22:02:00,
2013-01-01 17:07:00,69.7,58.3,29.99,SW,233,6.0,6.0,67,0.00,CLR,,0.00,WeatherDisplay:10.37,2013-01-01 22:07:00,
2013-01-01 17:12:00,69.5,58.1,30.00,SW,225,0.0,0.0,67,0.00,CLR,,0.00,WeatherDisplay:10.37,2013-01-01 22:12:00,
2013-01-01 17:17:00,69.4,58.0,30.00,SW,223,0.0,0.0,67,0.00,CLR,,0.00,WeatherDisplay:10.37,2013-01-01 22:17:00,
2013-01-01 17:22:00,69.3,58.3,29.99,SW,223,0.0,0.0,68,0.00,CLR,,0.00,WeatherDisplay:10.37,2013-01-01 22:22:00,
2013-01-01 17:27:00,69.2,58.2,29.99,SW,223,0.0,0.0,68,0.00,CLR,,0.00,WeatherDisplay:10.37,2013-01-01 22:27:00,
2013-01-01 17:32:00,69.1,58.1,29.99,SW,223,0.0,0.0,68,0.00,CLR,,0.00,WeatherDisplay:10.37,2013-01-01 22:32:00,
2013-01-01 17:37:00,69.0,58.0,29.99,SSW,207,0.0,0.0,68,0.00,CLR,,0.00,WeatherDisplay:10.37,2013-01-01 22:37:00,
2013-01-01 17:42:00,69.0,58.0,29.99,SSW,207,0.0,0.0,68,0.00,CLR,,0.00,WeatherDisplay:10.37,2013-01-01 22:42:00,
2013-01-01 17:47:00,68.8,57.8,29.99,SSW,207,0.0,0.0,68,0.00,CLR,,0.00,WeatherDisplay:10.37,2013-01-01 22:47:00,
2013-01-01 17:52:00,68.8,58.2,29.99,SSW,206,0.0,0.0,69,0.00,CLR,,0.00,WeatherDisplay:10.37,2013-01-01 22:52:00,
2013-01-01 17:57:00,68.6,58.0,29.99,SSW,207,0.0,0.0,69,0.00,CLR,,0.00,WeatherDisplay:10.37,2013-01-01 22:57:00,
2013-01-01 18:02:00,68.5,57.9,29.99,SSW,207,0.0,0.0,69,0.00,CLR,,0.00,WeatherDisplay:10.37,2013-01-01 23:02:00,
2013-01-01 18:07:00,68.4,57.8,29.99,SSW,207,0.0,0.0,69,0.00,CLR,,0.00,WeatherDisplay:10.37,2013-01-01 23:07:00,
2013-01-01 18:12:00,68.3,58.1,29.99,SSW,206,0.0,0.0,70,0.00,CLR,,0.00,WeatherDisplay:10.37,2013-01-01 23:12:00,
2013-01-01 18:17:00,68.2,58.0,29.99,SSW,207,0.0,0.0,70,0.00,CLR,,0.00,WeatherDisplay:10.37,2013-01-01 23:17:00,
2013-01-01 18:22:00,68.1,57.9,29.99,SSW,207,0.0,0.0,70,0.00,CLR,,0.00,WeatherDisplay:10.37,2013-01-01 23:22:00,
2013-01-01 18:27:00,67.9,58.1,29.99,SSW,207,0.0,0.0,71,0.00,CLR,,0.00,WeatherDisplay:10.37,2013-01-01 23:27:00,
2013-01-01 18:32:00,67.8,58.1,29.99,SSW,207,0.0,0.0,71,0.00,CLR,,0.00,WeatherDisplay:10.37,2013-01-01 23:32:00,
2013-01-01 18:37:00,67.6,57.9,29.99,SSW,207,0.0,0.0,71,0.00,CLR,,0.00,WeatherDisplay:10.37,2013-01-01 23:37:00,
2013-01-01 18:42:00,67.5,57.8,29.99,SSW,206,0.0,0.0,71,0.00,CLR,,0.00,WeatherDisplay:10.37,2013-01-01 23:42:00,
2013-01-01 18:47:00,67.3,58.0,29.99,SSW,206,0.0,0.0,72,0.00,CLR,,0.00,WeatherDisplay:10.37,2013-01-01 23:47:00,
2013-01-01 18:52:00,67.0,58.1,29.99,SSW,207,0.0,0.0,73,0.00,CLR,,0.00,WeatherDisplay:10.37,2013-01-01 23:52:00,
2013-01-01 18:57:00,66.8,57.9,29.99,SSW,207,0.0,0.0,73,0.00,CLR,,0.00,WeatherDisplay:10.37,2013-01-01 23:57:00,
2013-01-01 19:02:00,66.6,57.7,29.99,SSW,207,0.0,0.0,73,0.00,CLR,,0.00,WeatherDisplay:10.37,2013-01-02 00:02:00,
2013-01-01 19:07:00,66.4,57.9,29.99,SSW,207,0.0,0.0,74,0.00,CLR,,0.00,WeatherDisplay:10.37,2013-01-02 00:07:00,
2013-01-01 19:12:00,66.2,57.7,29.99,SSW,207,0.0,0.0,74,0.00,CLR,,0.00,WeatherDisplay:10.37,2013-01-02 00:12:00,
2013-01-01 19:17:00,66.1,57.9,29.99,SSW,207,0.0,0.0,75,0.00,CLR,,0.00,WeatherDisplay:10.37,2013-01-02 00:17:00,
2013-01-01 19:22:00,65.8,57.7,29.99,SSW,206,0.0,0.0,75,0.00,CLR,,0.00,WeatherDisplay:10.37,2013-01-02 00:22:00,
2013-01-01 19:27:00,65.5,57.4,29.99,SSW,207,0.0,0.0,75,0.00,CLR,,0.00,WeatherDisplay:10.37,2013-01-02 00:27:00,
2013-01-01 19:32:00,65.3,57.5,29.99,SSW,207,0.0,0.0,76,0.00,CLR,,0.00,WeatherDisplay:10.37,2013-01-02 00:32:00,
2013-01-01 19:37:00,65.1,57.7,29.99,SSW,207,0.0,0.0,77,0.00,CLR,,0.00,WeatherDisplay:10.37,2013-01-02 00:37:00,
2013-01-01 19:42:00,64.8,57.4,29.99,SSW,206,0.0,0.0,77,0.00,CLR,,0.00,WeatherDisplay:10.37,2013-01-02 00:42:00,
2013-01-01 19:47:00,64.6,57.2,29.99,South,188,0.0,0.0,77,0.00,CLR,,0.00,WeatherDisplay:10.37,2013-01-02 00:47:00,
2013-01-01 19:52:00,64.4,57.4,29.98,South,175,0.0,0.0,78,0.00,CLR,,0.00,WeatherDisplay:10.37,2013-01-02 00:52:00,
2013-01-01 19:57:00,64.3,57.6,29.98,South,180,3.5,3.5,79,0.00,CLR,,0.00,WeatherDisplay:10.37,2013-01-02 00:57:00,
2013-01-01 20:02:00,64.3,57.6,29.98,South,181,0.0,0.0,79,0.00,CLR,,0.00,WeatherDisplay:10.37,2013-01-02 01:02:00,
2013-01-01 20:07:00,64.3,57.6,29.98,South,180,1.1,1.1,79,0.00,CLR,,0.00,WeatherDisplay:10.37,2013-01-02 01:07:00,
2013-01-01 20:12:00,64.4,57.7,29.98,South,181,0.0,0.0,79,0.00,CLR,,0.00,WeatherDisplay:10.37,2013-01-02 01:12:00,
2013-01-01 20:17:00,64.4,57.7,29.98,South,181,0.0,0.0,79,0.00,CLR,,0.00,WeatherDisplay:10.37,2013-01-02 01:17:00,
2013-01-01 20:22:00,64.5,57.8,29.99,South,181,0.0,0.0,79,0.00,CLR,,0.00,WeatherDisplay:10.37,2013-01-02 01:22:00,
2013-01-01 20:27:00,64.5,57.8,29.99,South,182,0.0,0.0,79,0.00,CLR,,0.00,WeatherDisplay:10.37,2013-01-02 01:27:00,
2013-01-01 20:32:00,64.5,57.8,29.99,South,182,0.0,0.0,79,0.00,CLR,,0.00,WeatherDisplay:10.37,2013-01-02 01:32:00,
2013-01-01 20:37:00,64.6,57.9,29.99,South,183,1.1,0.0,79,0.00,CLR,,0.00,WeatherDisplay:10.37,2013-01-02 01:37:00,
2013-01-01 20:42:00,64.7,58.0,29.99,South,184,2.3,2.3,79,0.00,CLR,,0.00,WeatherDisplay:10.37,2013-01-02 01:42:00,
2013-01-01 20:47:00,64.7,57.7,29.99,South,186,1.1,1.1,78,0.00,CLR,,0.00,WeatherDisplay:10.37,2013-01-02 01:47:00,
2013-01-01 20:52:00,64.7,57.7,29.99,South,186,0.0,0.0,78,0.00,CLR,,0.00,WeatherDisplay:10.37,2013-01-02 01:52:00,
2013-01-01 20:57:00,64.8,57.8,29.99,SSW,209,0.0,0.0,78,0.00,CLR,,0.00,WeatherDisplay:10.37,2013-01-02 01:57:00,
2013-01-01 21:02:00,64.7,57.7,29.99,SSW,207,0.0,0.0,78,0.00,CLR,,0.00,WeatherDisplay:10.37,2013-01-02 02:02:00,
2013-01-01 21:07:00,64.7,57.7,29.98,SSW,208,0.0,0.0,78,0.00,CLR,,0.00,WeatherDisplay:10.37,2013-01-02 02:07:00,
2013-01-01 21:12:00,64.7,57.7,29.98,SSW,208,0.0,0.0,78,0.00,CLR,,0.00,WeatherDisplay:10.37,2013-01-02 02:12:00,
2013-01-01 21:17:00,64.6,57.6,29.98,SSW,208,0.0,0.0,78,0.00,CLR,,0.00,WeatherDisplay:10.37,2013-01-02 02:17:00,
2013-01-01 21:22:00,64.5,57.5,29.98,South,186,3.5,3.5,78,0.00,CLR,,0.00,WeatherDisplay:10.37,2013-01-02 02:22:00,
2013-01-01 21:27:00,64.5,57.5,29.98,South,183,0.0,0.0,78,0.00,CLR,,0.00,WeatherDisplay:10.37,2013-01-02 02:27:00,
2013-01-01 21:32:00,64.4,57.4,29.98,SW,222,4.0,4.0,78,0.00,CLR,,0.00,WeatherDisplay:10.37,2013-01-02 02:32:00,
2013-01-01 21:37:00,64.3,57.3,29.98,SW,223,3.0,0.0,78,0.00,CLR,,0.00,WeatherDisplay:10.37,2013-01-02 02:37:00,
2013-01-01 21:42:00,64.2,57.2,29.98,SW,217,0.0,0.0,78,0.00,CLR,,0.00,WeatherDisplay:10.37,2013-01-02 02:42:00,
2013-01-01 21:47:00,64.1,57.5,29.98,SSW,211,1.1,0.0,79,0.00,CLR,,0.00,WeatherDisplay:10.37,2013-01-02 02:47:00,
2013-01-01 21:52:00,64.0,57.4,29.98,SW,236,3.5,3.5,79,0.00,CLR,,0.00,WeatherDisplay:10.37,2013-01-02 02:52:00,
2013-01-01 21:57:00,64.0,57.4,29.98,SW,228,4.6,4.6,79,0.00,CLR,,0.00,WeatherDisplay:10.37,2013-01-02 02:57:00,
2013-01-01 22:02:00,64.0,57.4,29.98,SW,229,6.9,6.9,79,0.00,CLR,,0.00,WeatherDisplay:10.37,2013-01-02 03:02:00,
2013-01-01 22:07:00,64.0,57.4,29.98,South,191,4.6,4.6,79,0.00,CLR,,0.00,WeatherDisplay:10.37,2013-01-02 03:07:00,
2013-01-01 22:12:00,64.0,57.4,29.98,WSW,248,7.0,7.0,79,0.00,CLR,,0.00,WeatherDisplay:10.37,2013-01-02 03:12:00,
2013-01-01 22:17:00,64.1,57.1,29.98,SW,224,6.9,6.9,78,0.00,CLR,,0.00,WeatherDisplay:10.37,2013-01-02 03:17:00,
2013-01-01 22:22:00,64.1,57.5,29.98,SW,221,8.1,8.1,79,0.00,CLR,,0.00,WeatherDisplay:10.37,2013-01-02 03:22:00,
2013-01-01 22:27:00,64.1,57.5,29.98,SW,218,8.1,8.1,79,0.00,CLR,,0.00,WeatherDisplay:10.37,2013-01-02 03:27:00,
2013-01-01 22:32:00,64.1,57.1,29.97,SSW,211,5.0,5.0,78,0.00,CLR,,0.00,WeatherDisplay:10.37,2013-01-02 03:32:00,
2013-01-01 22:37:00,64.1,57.1,29.97,WSW,243,10.4,10.4,78,0.00,CLR,,0.00,WeatherDisplay:10.37,2013-01-02 03:37:00,
2013-01-01 22:42:00,64.1,57.1,29.98,SW,225,8.0,8.0,78,0.00,CLR,,0.00,WeatherDisplay:10.37,2013-01-02 03:42:00,
2013-01-01 22:47:00,64.2,57.2,29.98,SW,236,6.9,6.9,78,0.00,CLR,,0.00,WeatherDisplay:10.37,2013-01-02 03:47:00,
2013-01-01 22:52:00,64.2,57.2,29.97,SSW,206,5.0,5.0,78,0.00,CLR,,0.00,WeatherDisplay:10.37,2013-01-02 03:52:00,
2013-01-01 22:57:00,64.1,57.1,29.97,SSW,205,3.5,3.5,78,0.00,CLR,,0.00,WeatherDisplay:10.37,2013-01-02 03:57:00,
2013-01-01 23:02:00,64.0,57.0,29.97,SW,230,6.9,6.9,78,0.00,CLR,,0.00,WeatherDisplay:10.37,2013-01-02 04:02:00,
2013-01-01 23:07:00,63.9,57.3,29.97,SW,218,6.9,6.9,79,0.00,CLR,,0.00,WeatherDisplay:10.37,2013-01-02 04:07:00,
2013-01-01 23:12:00,63.8,57.2,29.96,SSW,213,5.8,5.8,79,0.00,CLR,,0.00,WeatherDisplay:10.37,2013-01-02 04:12:00,
2013-01-01 23:17:00,63.6,57.0,29.96,SW,228,10.4,10.4,79,0.00,CLR,,0.00,WeatherDisplay:10.37,2013-01-02 04:17:00,
2013-01-01 23:22:00,63.6,57.0,29.96,SW,223,8.1,8.1,79,0.00,CLR,,0.00,WeatherDisplay:10.37,2013-01-02 04:22:00,
2013-01-01 23:27:00,63.6,57.3,29.96,WSW,250,8.1,8.1,80,0.00,CLR,,0.00,WeatherDisplay:10.37,2013-01-02 04:27:00,
2013-01-01 23:32:00,63.5,57.2,29.96,SW,220,8.1,8.1,80,0.00,CLR,,0.00,WeatherDisplay:10.37,2013-01-02 04:32:00,
2013-01-01 23:37:00,63.5,57.2,29.97,SW,235,9.2,9.2,80,0.00,CLR,,0.00,WeatherDisplay:10.37,2013-01-02 04:37:00,
2013-01-01 23:42:00,63.5,57.2,29.97,SW,235,8.0,8.0,80,0.00,CLR,,0.00,WeatherDisplay:10.37,2013-01-02 04:42:00,
2013-01-01 23:47:00,63.4,57.1,29.97,WSW,239,10.4,10.4,80,0.00,CLR,,0.00,WeatherDisplay:10.37,2013-01-02 04:47:00,
2013-01-01 23:52:00,63.5,57.2,29.97,SW,225,5.0,5.0,80,0.00,CLR,,0.00,WeatherDisplay:10.37,2013-01-02 04:52:00,
2013-01-01 23:57:00,63.4,57.1,29.97,SW,229,3.5,3.5,80,0.00,CLR,,0.00,WeatherDisplay:10.37,2013-01-02 04:57:00,